Tiempo atmosférico en la estación meteorológica de Almadén de la Plata, Sevilla (450 m.)



Fecha
DESCASC
Temp. máxima en grados centígrados (hora)
DESCASC
Temp. mínima en grados centígrados (hora)
DESCASC
Temp. media en grados centígrados
DESCASC
Racha de viento máxima en m/sg (hora)
DESCASC
Velocidad máxima media en intervalos de 10 minutos(hora)
DESCASC
Precipitaciones diarias en mm
DESCASC
Precipitaciones de 00:00 a 06:00 en mm
DESCASC
Precipitaciones de 06:00 a 12:00 en mm
DESCASC
Precipitaciones de 12:00 a 18:00 en mm
DESCASC
Precipitaciones de 18:00 a 24:00 en mm
DESCASC
31-05-2020 26.4 (13:00) 16.4 (05:50) 21.4 7.5 (16:40) 3.33 (15:10) 0 0 0 0 0
30-05-2020 31.5 (17:40) 15 (07:30) 23.3 7.78 (17:20) 3.61 (16:00) 0 0 0 0 0
28-05-2020 30.1 (17:40) 15.3 (00:00) 22.7 8.61 (15:10) 4.17 (10:30) 0 0 0 0 0
27-05-2020 29.7 (17:30) 16.2 (06:50) 23 8.06 (13:40) 3.89 (12:30) 0 0 0 0 0
26-05-2020 30.5 (16:40) 15.5 (00:00) 23 10 (11:00) 5.56 (11:00) 0 0 0 0 0
25-05-2020 32.5 (18:00) 16.9 (00:00) 24.7 5.28 (12:30) 2.78 (22:20) 0 0 0 0 0
24-05-2020 32.7 (17:40) 19.1 (07:10) 25.9 5.28 (15:20) 2.78 (11:00) 0 0 0 0 0
23-05-2020 34.3 (18:30) 18.9 (00:00) 26.6 5 (12:50) 2.22 (12:30) 0 0 0 0 0
22-05-2020 33.2 (18:00) 17.6 (00:00) 25.4 5.28 (22:40) 2.78 (23:10) 0 0 0 0 0
21-05-2020 32.1 (19:30) 17.5 (00:00) 24.8 4.44 (14:40) 2.22 (18:30) 0 0 0 0 0
20-05-2020 30.8 (18:40) 16.9 (00:00) 23.8 6.39 (17:00) 3.06 (17:00) 0 0 0 0 0
19-05-2020 30 (19:10) 15.2 (07:20) 22.6 5.83 (17:10) 2.5 (13:50) 0 0 0 0 0
18-05-2020 27.9 (20:10) 12.7 (00:00) 20.3 5 (18:00) 2.5 (22:30) 0 0 0 0 0
17-05-2020 22.9 (15:10) 11.5 (00:00) 17.2 5 (14:00) 2.5 (19:30) 1.8 0 0 1.8 0
16-05-2020 21.5 (15:20) 10.1 (00:00) 15.8 3.89 (18:50) 1.94 (16:10) 0.6 0 0 0.4 0.2
15-05-2020 20.8 (16:10) 10.8 (04:40) 15.8 6.94 (17:00) 3.61 (16:50) 1.2 0.4 0 0.2 0.6
14-05-2020 15.4 (18:40) 8.7 (00:00) 12 10.28 (13:20) 4.17 (12:40) 18.2 2.2 2.4 12 1.6
13-05-2020 17.4 (16:20) 9.6 (00:00) 13.5 8.61 (19:10) 3.61 (18:20) 2.6 0 0 1.8 0.8
12-05-2020 15.8 (14:20) 10.6 (04:30) 13.2 6.94 (12:50) 3.61 (13:10) 4.4 0 0 4 0.4
11-05-2020 19 (15:40) 12.7 (00:00) 15.8 11.39 (09:00) 5.28 (09:00) 6.2 0.4 5.8 0 0
10-05-2020 19 (17:40) 9.9 (00:00) 14.4 9.44 (18:20) 4.44 (17:20) 1.6 0.4 0.6 0.6 0
09-05-2020 20.8 (15:50) 12.5 (07:00) 16.6 9.17 (16:50) 3.89 (15:20) 9.6 0 0 0.4 9.2
08-05-2020 24.1 (16:40) 13 (00:00) 18.6 8.61 (15:50) 3.89 (15:50) 0 0 0 0 0
07-05-2020 27.7 (16:10) 14.7 (00:00) 21.2 9.17 (14:30) 4.17 (13:00) 0 0 0 0 0
06-05-2020 28 (17:20) 12.9 (00:00) 20.4 6.11 (17:10) 2.22 (03:30) 0 0 0 0 0
05-05-2020 26.3 (19:40) 13.8 (00:00) 20 5.28 (15:00) 2.5 (21:30) 0 0 0 0 0
04-05-2020 26.4 (15:50) 15.8 (00:00) 21.1 11.11 (13:20) 5 (13:20) 0 0 0 0 0
03-05-2020 31 (18:40) 16.5 (07:50) 23.8 6.39 (11:10) 3.61 (11:30) 0 0 0 0 0

Gráficas

Temp. máximas Temp. mínimas Temp. medias Precipitaciones Rachas de viento máximas Velocidades máximas media en intervalos de 10 minutos

Datos horarios

Fecha y hora oficial Temperatura (ºC) Velocidad del viento (km/h) Dirección del viento Racha (km/h) Dirección de racha Precipitación (mm) Presión (hPa) Tendencia (hPa) Humedad (%)
2020-06-01 23:00:00 19.6 7 Sudoeste 15 Sur 0 -- -- 72
2020-06-01 22:00:00 20.6 5 Sudoeste 11 Sudoeste 0 -- -- 68
2020-06-01 21:00:00 23.5 4 Sudoeste 14 Sur 0 -- -- 59
2020-06-01 20:00:00 24.4 6 Sudoeste 18 Sur 0 -- -- 58
2020-06-01 19:00:00 25 8 Sudoeste 20 Sudoeste 0 -- -- 55
2020-06-01 18:00:00 24.7 8 Sur 19 Sur 0 -- -- 55
2020-06-01 17:00:00 24.8 8 Sur 24 Sudoeste 0 -- -- 54
2020-06-01 16:00:00 24.6 10 Sudoeste 33 Sudoeste 0 -- -- 53
2020-06-01 15:00:00 23.9 10 Sudoeste 27 Sudoeste 0 -- -- 54
2020-06-01 14:00:00 23.2 12 Sudoeste 26 Sudoeste 0 -- -- 58
2020-06-01 13:00:00 21.5 8 Sur 26 Sudoeste 0 -- -- 64
2020-06-01 12:00:00 20.7 10 Sudoeste 23 Sur 0 -- -- 64
2020-06-01 11:00:00 18.2 6 Sur 16 Sudoeste 0 -- -- 79
2020-06-01 10:00:00 17.3 4 Sudoeste 15 Sur 0 -- -- 83
2020-06-01 09:00:00 16.4 5 Sudeste 10 Sudeste 0 -- -- 85
2020-06-01 08:00:00 14.3 4 Este 11 Sudeste 0 -- -- 92
2020-06-01 07:00:00 13.6 4 Sudeste 6 Sudeste 0 -- -- 92
2020-06-01 06:00:00 14.1 4 Este 6 Sudeste 0 -- -- 89
2020-06-01 05:00:00 14.9 4 Sudeste 10 Sudeste 0 -- -- 84
2020-06-01 04:00:00 15.7 5 Sudeste 10 Sur 0 -- -- 79
2020-06-01 03:00:00 15.9 6 Sudeste 8 Sudeste 0 -- -- 74
2020-06-01 02:00:00 16 4 Sudeste 8 Sur 0 -- -- 73
2020-06-01 01:00:00 16.9 6 Sudeste 9 Sudeste 0 -- -- 70
2020-06-01 00:00:00 17.4 5 Sur 8 Sur 0 -- -- 68
2020-05-31 23:00:00 17.9 6 Sur 9 Sur 0 -- -- 65
2020-05-31 22:00:00 19.2 3 Sur 7 Sur 0 -- -- 61
2020-05-31 21:00:00 21.9 2 Sudeste 17 Sur 0 -- -- 51
2020-05-31 20:00:00 22.2 4 Sur 21 Sudoeste 0 -- -- 49
2020-05-31 19:00:00 22.5 8 Sur 20 Sur 0 -- -- 50
2020-05-31 18:00:00 22.1 5 Sur 18 Sur 0 -- -- 54
2020-05-31 17:00:00 22.6 9 Sur 27 Sur 0 -- -- 50
2020-05-31 16:00:00 24.9 10 Sur 25 Sudeste 0 -- -- 42
2020-05-31 15:00:00 25.7 11 Sur 21 Sudoeste 0 -- -- 31
2020-05-31 14:00:00 25.7 10 Sur 20 Sudeste 0 -- -- 29
2020-05-31 13:00:00 26.4 4 Este 15 Este 0 -- -- 29
2020-05-31 12:00:00 25.5 8 Este 16 Nordeste 0 -- -- 27
2020-05-31 11:00:00 23.1 6 Este 16 Este 0 -- -- 34
2020-05-31 10:00:00 21 6 Este 13 Este 0 -- -- 41
2020-05-31 09:00:00 18.3 0 Calma 8 Este 0 -- -- 52
2020-05-31 08:00:00 17.3 0 Calma 9 Este 0 -- -- 58
2020-05-31 07:00:00 16.9 0 Calma 6 Este 0 -- -- 58
2020-05-31 06:00:00 16.7 4 Este 5 Este 0 -- -- 58
2020-05-31 05:00:00 16.7 0 Calma 4 Oeste 0 -- -- 64
2020-05-31 04:00:00 17.9 0 Calma 6 Sudoeste 0 -- -- 61
2020-05-31 03:00:00 18.2 0 Calma 8 Sudoeste 0 -- -- 62
2020-05-31 02:00:00 18.8 0 Calma 10 Sur 0 -- -- 62
2020-05-31 01:00:00 19.5 5 Sur 13 Sur 0 -- -- 58
2020-05-31 00:00:00 21.5 7 Sur 11 Sur 0 -- -- 52
2020-05-30 23:00:00 22.2 3 Sudeste 10 Sur 0 -- -- 46
2020-05-30 22:00:00 25.1 4 Sur 16 Sudeste 0 -- -- 31
2020-05-30 21:00:00 27.8 6 Sudeste 12 Sudeste 0 -- -- 28
2020-05-30 20:00:00 29.5 6 Sudeste 21 Este 0 -- -- 27
2020-05-30 19:00:00 31.2 7 Este 23 Sudeste 0 -- -- 24
2020-05-30 18:00:00 31.3 10 Este 28 Este 0 -- -- 23
2020-05-30 17:00:00 31.3 9 Este 23 Sudeste 0 -- -- 22
2020-05-30 16:00:00 30.6 13 Este 25 Este 0 -- -- 25
2020-05-30 15:00:00 29.1 12 Sudeste 22 Este 0 -- -- 31
2020-05-30 14:00:00 29.1 9 Sudeste 21 Este 0 -- -- 29
2020-05-30 13:00:00 27.9 8 Sudeste 23 Sudeste 0 -- -- 32
2020-05-30 12:00:00 27 7 Este 21 Sudeste 0 -- -- 41
2020-05-30 11:00:00 23.7 4 Nordeste 10 Norte 0 -- -- 50
2020-05-30 10:00:00 21 5 Noroeste 9 Noroeste 0 -- -- 53
2020-05-30 09:00:00 17.3 0 Calma 3 Norte 0 -- -- 75
2020-05-30 08:00:00 15.3 0 Calma 2 Sudeste 0 -- -- 82
2020-05-30 07:00:00 15.2 0 Calma 10 Sur 0 -- -- 78
2020-05-30 06:00:00 16 6 Sur 9 Sur 0 -- -- 73
2020-05-30 05:00:00 16.4 0 Calma 6 Sudoeste 0 -- -- 72
2020-05-30 04:00:00 18 2 Sudoeste 11 Sur 0 -- -- 65
2020-05-30 03:00:00 19.2 7 Sudoeste 17 Sudoeste 0 -- -- 64
2020-05-30 02:00:00 20.8 4 Sur 15 Sudoeste 0 -- -- 62
2020-05-30 01:00:00 22.3 7 Sudoeste 18 Oeste 0 -- -- 57
2020-05-30 00:00:00 23.4 7 Sudoeste 18 Sudoeste 0 -- -- 54
2020-05-29 23:00:00 24.5 6 Sudoeste 14 Sudoeste 0 -- -- 52
2020-05-29 22:00:00 26 7 Oeste 14 Oeste 0 -- -- 48
2020-05-29 21:00:00 28.9 6 Sur 12 Sur 0 -- -- 38
2020-05-29 20:00:00 31.4 5 Sudoeste 13 Sur 0 -- -- 33
2020-05-29 19:00:00 31.7 5 Sudoeste 14 Sur 0 -- -- 31
2020-05-29 18:00:00 31.2 6 Sudeste 13 Sudeste 0 -- -- 34
2020-05-29 17:00:00 31.4 4 Sudoeste 17 Este 0 -- -- 33
2020-05-29 16:00:00 31 5 Este 10 Este 0 -- -- 34
2020-05-29 15:00:00 29.4 6 Sudeste 16 Este 0 -- -- 36
2020-05-29 14:00:00 28.3 4 Sudoeste 16 Este 0 -- -- 41
2020-05-29 13:00:00 27.4 6 Este 19 Este 0 -- -- 39
2020-05-29 12:00:00 26 5 Este 18 Este 0 -- -- 42
2020-05-29 11:00:00 24.6 9 Este 19 Nordeste 0 -- -- 46
2020-05-29 10:00:00 22.4 7 Este 16 Nordeste 0 -- -- 53
2020-05-29 09:00:00 18.6 0 Calma 2 Noroeste 0 -- -- 78
2020-05-29 08:00:00 16.8 0 Calma 5 Sudoeste 0 -- -- 80
2020-05-29 07:00:00 16.2 0 Calma 5 Oeste 0 -- -- 80
2020-05-29 06:00:00 16.3 0 Calma 4 Oeste 0 -- -- 81
2020-05-29 05:00:00 16.8 0 Calma 9 Oeste 0 -- -- 79
2020-05-29 04:00:00 17.8 3 Sudoeste 16 Sudoeste 0 -- -- 74
2020-05-29 03:00:00 18.2 4 Sudoeste 14 Sur 0 -- -- 71
2020-05-29 02:00:00 18.8 4 Sudoeste 15 Sudoeste 0 -- -- 70
2020-05-29 01:00:00 20.4 9 Sur 18 Sur 0 -- -- 64
2020-05-29 00:00:00 21 4 Sur 14 Sur 0 -- -- 60
2020-05-28 23:00:00 23.1 9 Sur 14 Sur 0 -- -- 52
2020-05-28 22:00:00 25.3 6 Sur 8 Sur 0 -- -- 46
2020-05-28 21:00:00 28.1 5 Sudeste 8 Sudeste 0 -- -- 41
2020-05-28 20:00:00 29.5 5 Este 16 Este 0 -- -- 36
2020-05-28 19:00:00 29.8 6 Sudeste 23 Sudeste 0 -- -- 35
2020-05-28 18:00:00 30 5 Sudeste 22 Este 0 -- -- 34
2020-05-28 17:00:00 29.5 9 Sudeste 24 Este 0 -- -- 34
2020-05-28 16:00:00 29.3 10 Este 31 Este 0 -- -- 36
2020-05-28 15:00:00 29.2 12 Este 24 Este 0 -- -- 34
2020-05-28 14:00:00 28.1 9 Este 24 Este 0 -- -- 40
2020-05-28 13:00:00 26.8 11 Este 23 Este 0 -- -- 45
2020-05-28 12:00:00 25.2 12 Este 24 Este 0 -- -- 49
2020-05-28 11:00:00 23.5 13 Este 27 Este 0 -- -- 52
2020-05-28 10:00:00 21.7 8 Nordeste 15 Nordeste 0 -- -- 58
2020-05-28 09:00:00 17.7 4 Este 9 Este 0 -- -- 71
2020-05-28 08:00:00 15.6 0 Calma 2 Sur 0 -- -- 74
2020-05-28 07:00:00 15.6 0 Calma 5 Este 0 -- -- 71
2020-05-28 06:00:00 15.9 0 Calma 5 Este 0 -- -- 69
2020-05-28 05:00:00 17 0 Calma 6 Este 0 -- -- 64
2020-05-28 04:00:00 17.5 4 Sudeste 7 Sudeste 0 -- -- 60
2020-05-28 03:00:00 17.4 4 Sudeste 9 Este 0 -- -- 61
2020-05-28 02:00:00 18.3 5 Este 11 Sudeste 0 -- -- 57
2020-05-28 01:00:00 19.4 5 Este 10 Este 0 -- -- 54
2020-05-28 00:00:00 21.4 3 Sudeste 18 Sudeste 0 -- -- 47
2020-05-27 23:00:00 23.2 6 Sudeste 18 Sudeste 0 -- -- 41
2020-05-27 22:00:00 24 5 Sudeste 11 Sur 0 -- -- 42
2020-05-27 21:00:00 26.8 3 Sur 16 Sudeste 0 -- -- 39
2020-05-27 20:00:00 28.1 8 Sudeste 20 Sur 0 -- -- 36
2020-05-27 19:00:00 28.9 12 Sudeste 23 Sudeste 0 -- -- 36
2020-05-27 18:00:00 29.4 9 Sudeste 28 Este 0 -- -- 36
2020-05-27 17:00:00 29.4 12 Este 26 Sudeste 0 -- -- 41
2020-05-27 16:00:00 28.5 12 Sudeste 24 Sudeste 0 -- -- 40
2020-05-27 15:00:00 28.3 9 Este 23 Sudeste 0 -- -- 43
2020-05-27 14:00:00 28.2 10 Nordeste 29 Este 0 -- -- 44
2020-05-27 13:00:00 26.3 13 Este 28 Este 0 -- -- 49
2020-05-27 12:00:00 25 12 Este 26 Este 0 -- -- 52
2020-05-27 11:00:00 23.2 9 Este 26 Este 0 -- -- 57
2020-05-27 10:00:00 21.2 10 Este 23 Este 0 -- -- 61
2020-05-27 09:00:00 18.7 7 Este 13 Este 0 -- -- 71
2020-05-27 08:00:00 16.9 3 Sudeste 16 Sudeste 0 -- -- 74
2020-05-27 07:00:00 16.4 7 Este 14 Este 0 -- -- 72
2020-05-27 06:00:00 16.5 5 Este 10 Este 0 -- -- 67
2020-05-27 05:00:00 16.9 3 Este 8 Este 0 -- -- 66
2020-05-27 04:00:00 16.8 4 Sudeste 7 Sudeste 0 -- -- 70
2020-05-27 03:00:00 17.1 0 Calma 8 Sur 0 -- -- 72
2020-05-27 02:00:00 18.4 7 Sur 12 Sur 0 -- -- 65
2020-05-27 01:00:00 19.6 8 Sur 12 Sur 0 -- -- 61
2020-05-27 00:00:00 20.9 7 Sudeste 13 Este 0 -- -- 50
2020-05-26 23:00:00 22.7 4 Este 11 Sudeste 0 -- -- 45
2020-05-26 22:00:00 24.6 6 Sur 14 Sudeste 0 -- -- 41
2020-05-26 21:00:00 28.1 5 Sur 10 Sudeste 0 -- -- 39
2020-05-26 20:00:00 29.6 6 Sudeste 16 Sudeste 0 -- -- 32
2020-05-26 19:00:00 30.2 8 Este 24 Este 0 -- -- 32
2020-05-26 18:00:00 30.1 10 Sudeste 24 Sudeste 0 -- -- 30
2020-05-26 17:00:00 30.1 10 Este 31 Sudeste 0 -- -- 30
2020-05-26 16:00:00 29.5 13 Sudeste 26 Este 0 -- -- 29
2020-05-26 15:00:00 29.3 14 Este 29 Este 0 -- -- 31
2020-05-26 14:00:00 27.2 14 Sudeste 31 Este 0 -- -- 35
2020-05-26 13:00:00 26.5 17 Este 36 Este 0 -- -- 33
2020-05-26 12:00:00 25.6 13 Este 34 Este 0 -- -- 36
2020-05-26 11:00:00 23.8 20 Este 36 Este 0 -- -- 37
2020-05-26 10:00:00 22 14 Este 28 Este 0 -- -- 48
2020-05-26 09:00:00 18.4 6 Este 15 Este 0 -- -- 60
2020-05-26 08:00:00 16.2 3 Sudeste 9 Este 0 -- -- 65
2020-05-26 07:00:00 15.6 6 Este 10 Este 0 -- -- 69
2020-05-26 06:00:00 16.1 3 Este 8 Este 0 -- -- 77
2020-05-26 05:00:00 16.1 0 Calma 5 Sudeste 0 -- -- 78
2020-05-26 04:00:00 16.9 5 Sudeste 10 Sur 0 -- -- 74
2020-05-26 03:00:00 17.8 6 Sur 8 Sur 0 -- -- 73
2020-05-26 02:00:00 19.1 3 Sudoeste 14 Sur 0 -- -- 71
2020-05-26 01:00:00 20.2 4 Sur 8 Sur 0 -- -- 69
2020-05-26 00:00:00 22.1 3 Sudeste 12 Sudoeste 0 -- -- 61
2020-05-25 23:00:00 24.1 7 Sudoeste 15 Sudoeste 0 -- -- 55
2020-05-25 22:00:00 26.4 9 Sur 14 Sur 0 -- -- 44
2020-05-25 21:00:00 30.1 4 Sur 8 Sudeste 0 -- -- 38
2020-05-25 20:00:00 31.9 6 Sur 12 Sudeste 0 -- -- 29
2020-05-25 19:00:00 31.9 5 Sur 14 Sudeste 0 -- -- 28
2020-05-25 18:00:00 32.5 4 Sur 13 Sudoeste 0 -- -- 28
2020-05-25 17:00:00 31.8 5 Sudeste 14 Sudeste 0 -- -- 28
2020-05-25 16:00:00 30.7 6 Sudeste 13 Este 0 -- -- 32
2020-05-25 15:00:00 29.7 5 Sudeste 15 Sudeste 0 -- -- 31
2020-05-25 14:00:00 29 6 Sur 16 Sudeste 0 -- -- 34
2020-05-25 13:00:00 28 9 Sudeste 19 Sudeste 0 -- -- 33
2020-05-25 12:00:00 27 8 Este 16 Este 0 -- -- 39
2020-05-25 11:00:00 25.2 5 Sudeste 13 Este 0 -- -- 51
2020-05-25 10:00:00 22.6 3 Este 10 Este 0 -- -- 64
2020-05-25 09:00:00 18.8 0 Calma 3 Nordeste 0 -- -- 74
2020-05-25 08:00:00 17.6 0 Calma 7 Sudeste 0 -- -- 76
2020-05-25 07:00:00 17.3 5 Sudeste 8 Sudeste 0 -- -- 72
2020-05-25 06:00:00 17.2 0 Calma 3 Sudoeste 0 -- -- 72
2020-05-25 05:00:00 17.6 0 Calma 3 Sudoeste 0 -- -- 72
2020-05-25 04:00:00 18.3 0 Calma 7 Sudoeste 0 -- -- 67
2020-05-25 03:00:00 19.4 3 Sudoeste 10 Sur 0 -- -- 63
2020-05-25 02:00:00 19.6 0 Calma 6 Sudoeste 0 -- -- 65
2020-05-25 01:00:00 20.6 0 Calma 6 Sur 0 -- -- 59
2020-05-25 00:00:00 22.2 3 Sur 11 Sur 0 -- -- 56
2020-05-24 23:00:00 24.3 7 Sudeste 10 Sudeste 0 -- -- 36
2020-05-24 22:00:00 25.8 4 Sudeste 9 Sudeste 0 -- -- 36
2020-05-24 21:00:00 28.9 5 Sudeste 9 Este 0 -- -- 45
2020-05-24 20:00:00 30 4 Sudeste 6 Este 0 -- -- 39
2020-05-24 19:00:00 32.1 6 Este 13 Este 0 -- -- 28
2020-05-24 18:00:00 32.4 6 Este 14 Este 0 -- -- 34
2020-05-24 17:00:00 32 5 Sur 16 Sudeste 0 -- -- 30
2020-05-24 16:00:00 31.3 5 Sur 19 Sudeste 0 -- -- 32
2020-05-24 15:00:00 30.6 9 Sudeste 17 Sur 0 -- -- 35
2020-05-24 14:00:00 29.7 8 Sudeste 18 Sudeste 0 -- -- 38
2020-05-24 13:00:00 28.7 6 Sudeste 16 Sudeste 0 -- -- 44
2020-05-24 12:00:00 27.4 9 Sudeste 18 Este 0 -- -- 49
2020-05-24 11:00:00 26.8 10 Este 18 Este 0 -- -- 54
2020-05-24 10:00:00 25 7 Este 13 Este 0 -- -- 61
2020-05-24 09:00:00 21.7 0 Calma 2 Este 0 -- -- 69
2020-05-24 08:00:00 19.6 0 Calma 2 Sur 0 -- -- 79
2020-05-24 07:00:00 19.2 0 Calma 4 Este 0 -- -- 76
2020-05-24 06:00:00 19.7 0 Calma 7 Sudeste 0 -- -- 72
2020-05-24 05:00:00 21.1 0 Calma 3 Sudoeste 0 -- -- 65
2020-05-24 04:00:00 21.5 2 Oeste 4 Noroeste 0 -- -- 66
2020-05-24 03:00:00 22.2 0 Calma 6 Noroeste 0 -- -- 64
2020-05-24 02:00:00 23.3 0 Calma 12 Noroeste 0 -- -- 56
2020-05-24 01:00:00 24.4 5 Norte 11 Norte 0 -- -- 50
2020-05-24 00:00:00 24.5 2 Norte 8 Norte 0 -- -- 49
2020-05-23 23:00:00 25.4 3 Noroeste 10 Norte 0 -- -- 45
2020-05-23 22:00:00 27.3 6 Noroeste 16 Noroeste 0 -- -- 42
2020-05-23 21:00:00 31.2 2 Oeste 5 Noroeste 0 -- -- 42
2020-05-23 20:00:00 33.7 3 Oeste 8 Sudoeste 0 -- -- 35
2020-05-23 19:00:00 34 4 Oeste 13 Oeste 0 -- -- 26
2020-05-23 18:00:00 34.1 6 Noroeste 13 Noroeste 0 -- -- 29
2020-05-23 17:00:00 33.7 7 Este 12 Este 0 -- -- 31
2020-05-23 16:00:00 33.4 4 Noroeste 13 Este 0 -- -- 31
2020-05-23 15:00:00 32.4 4 Este 13 Sudeste 0 -- -- 33
2020-05-23 14:00:00 31.6 5 Noroeste 12 Sudeste 0 -- -- 34
2020-05-23 13:00:00 30.9 6 Este 18 Este 0 -- -- 37
2020-05-23 12:00:00 30.5 5 Nordeste 15 Este 0 -- -- 40
2020-05-23 11:00:00 28.1 6 Nordeste 13 Nordeste 0 -- -- 46
2020-05-23 10:00:00 24.3 2 Nordeste 5 Nordeste 0 -- -- 58
2020-05-23 09:00:00 21.4 0 Calma 3 Este 0 -- -- 62
2020-05-23 08:00:00 19.2 2 Oeste 4 Oeste 0 -- -- 71
2020-05-23 07:00:00 19.2 2 Oeste 5 Oeste 0 -- -- 68
2020-05-23 06:00:00 19.7 4 Oeste 8 Oeste 0 -- -- 65
2020-05-23 05:00:00 19.9 3 Oeste 7 Noroeste 0 -- -- 61
2020-05-23 04:00:00 19.9 2 Oeste 8 Noroeste 0 -- -- 63
2020-05-23 03:00:00 20.6 4 Oeste 9 Noroeste 0 -- -- 63
2020-05-23 02:00:00 22 6 Noroeste 10 Noroeste 0 -- -- 61
2020-05-23 01:00:00 23.1 4 Noroeste 12 Noroeste 0 -- -- 60
2020-05-23 00:00:00 23.6 5 Noroeste 17 Noroeste 0 -- -- 58
2020-05-22 23:00:00 24.9 8 Oeste 19 Oeste 0 -- -- 49
2020-05-22 22:00:00 25.2 5 Sudoeste 9 Sudoeste 0 -- -- 43
2020-05-22 21:00:00 28.9 2 Sur 5 Sur 0 -- -- 46
2020-05-22 20:00:00 31.9 3 Sudeste 9 Sudeste 0 -- -- 34
2020-05-22 19:00:00 32.4 5 Sur 9 Sur 0 -- -- 31
2020-05-22 18:00:00 33.2 2 Noroeste 12 Norte 0 -- -- 26
2020-05-22 17:00:00 32.3 5 Noroeste 12 Este 0 -- -- 27
2020-05-22 16:00:00 31.9 6 Este 16 Este 0 -- -- 28
2020-05-22 15:00:00 31.5 5 Este 16 Este 0 -- -- 37
2020-05-22 14:00:00 30.3 6 Este 14 Este 0 -- -- 40
2020-05-22 13:00:00 29.7 4 Norte 12 Nordeste 0 -- -- 42
2020-05-22 12:00:00 28.8 4 Nordeste 11 Nordeste 0 -- -- 41
2020-05-22 11:00:00 26.5 3 Nordeste 9 Nordeste 0 -- -- 49
2020-05-22 10:00:00 23.4 3 Este 5 Nordeste 0 -- -- 60
2020-05-22 09:00:00 20.3 0 Calma 2 Noroeste 0 -- -- 60
2020-05-22 08:00:00 17.9 0 Calma 11 Sudeste 0 -- -- 70
2020-05-22 07:00:00 17.7 0 Calma 3 Oeste 0 -- -- 67
2020-05-22 06:00:00 18.1 0 Calma 4 Oeste 0 -- -- 67
2020-05-22 05:00:00 18.6 0 Calma 4 Oeste 0 -- -- 64
2020-05-22 04:00:00 19.3 3 Oeste 8 Oeste 0 -- -- 63
2020-05-22 03:00:00 20.2 4 Oeste 7 Oeste 0 -- -- 62
2020-05-22 02:00:00 21 3 Oeste 8 Noroeste 0 -- -- 58
2020-05-22 01:00:00 21.8 2 Noroeste 12 Oeste 0 -- -- 52
2020-05-22 00:00:00 22.3 5 Oeste 10 Noroeste 0 -- -- 51
2020-05-21 23:00:00 23.9 6 Oeste 14 Oeste 0 -- -- 47
2020-05-21 22:00:00 25.1 7 Sudoeste 12 Sur 0 -- -- 50
2020-05-21 21:00:00 28.6 5 Sur 7 Sudoeste 0 -- -- 43
2020-05-21 20:00:00 31.8 3 Sur 7 Oeste 0 -- -- 29
2020-05-21 19:00:00 31.5 5 Oeste 15 Sudoeste 0 -- -- 27
2020-05-21 18:00:00 31.4 6 Sur 13 Sudoeste 0 -- -- 30
2020-05-21 17:00:00 31.4 6 Noroeste 13 Oeste 0 -- -- 29
2020-05-21 16:00:00 31.1 3 Sudeste 16 Sudoeste 0 -- -- 34
2020-05-21 15:00:00 30.5 5 Sudeste 16 Sudeste 0 -- -- 30
2020-05-21 14:00:00 30.2 5 Este 10 Oeste 0 -- -- 35
2020-05-21 13:00:00 29.1 4 Oeste 12 Este 0 -- -- 42
2020-05-21 12:00:00 28.3 3 Nordeste 13 Este 0 -- -- 46
2020-05-21 11:00:00 26 3 Nordeste 9 Nordeste 0 -- -- 53
2020-05-21 10:00:00 23.2 2 Norte 4 Nordeste 0 -- -- 57
2020-05-21 09:00:00 20.2 0 Calma 2 Noroeste 0 -- -- 64
2020-05-21 08:00:00 17.8 0 Calma 5 Oeste 0 -- -- 72
2020-05-21 07:00:00 17.5 3 Oeste 5 Oeste 0 -- -- 67
2020-05-21 06:00:00 18.3 2 Oeste 9 Oeste 0 -- -- 66
2020-05-21 05:00:00 19 4 Oeste 8 Oeste 0 -- -- 65
2020-05-21 04:00:00 19.3 3 Oeste 8 Oeste 0 -- -- 67
2020-05-21 03:00:00 20.1 3 Noroeste 14 Noroeste 0 -- -- 64
2020-05-21 02:00:00 20.2 3 Oeste 8 Oeste 0 -- -- 65
2020-05-21 01:00:00 21 3 Noroeste 9 Oeste 0 -- -- 59
2020-05-21 00:00:00 22.2 3 Oeste 8 Oeste 0 -- -- 58
2020-05-20 23:00:00 23.4 4 Oeste 15 Oeste 0 -- -- 54
2020-05-20 22:00:00 24.4 5 Sudoeste 13 Sur 0 -- -- 53
2020-05-20 21:00:00 27.3 4 Sudoeste 14 Sudoeste 0 -- -- 47
2020-05-20 20:00:00 29.9 5 Sudoeste 12 Sudoeste 0 -- -- 38
2020-05-20 19:00:00 30.1 5 Sudoeste 18 Sudoeste 0 -- -- 38
2020-05-20 18:00:00 30.4 6 Sudoeste 19 Sudoeste 0 -- -- 36
2020-05-20 17:00:00 30.2 11 Oeste 23 Noroeste 0 -- -- 38
2020-05-20 16:00:00 30.4 6 Oeste 18 Sudoeste 0 -- -- 34
2020-05-20 15:00:00 29.4 4 Sudoeste 15 Sudeste 0 -- -- 37
2020-05-20 14:00:00 29.3 5 Sudoeste 17 Sudoeste 0 -- -- 36
2020-05-20 13:00:00 28.6 4 Sur 11 Sur 0 -- -- 40
2020-05-20 12:00:00 27.7 4 Sur 12 Este 0 -- -- 41
2020-05-20 11:00:00 26.2 5 Este 10 Nordeste 0 -- -- 52
2020-05-20 10:00:00 22.7 2 Nordeste 5 Nordeste 0 -- -- 59
2020-05-20 09:00:00 19.9 0 Calma 3 Sudeste 0 -- -- 66
2020-05-20 08:00:00 17.2 0 Calma 4 Oeste 0 -- -- 72
2020-05-20 07:00:00 17 0 Calma 4 Oeste 0 -- -- 68
2020-05-20 06:00:00 17.2 0 Calma 4 Sudoeste 0 -- -- 67
2020-05-20 05:00:00 17.9 0 Calma 5 Sudoeste 0 -- -- 66
2020-05-20 04:00:00 18.1 2 Oeste 6 Oeste 0 -- -- 68
2020-05-20 03:00:00 18.6 4 Oeste 5 Oeste 0 -- -- 70
2020-05-20 02:00:00 19.4 0 Calma 9 Noroeste 0 -- -- 69
2020-05-20 01:00:00 20.4 5 Oeste 12 Oeste 0 -- -- 64
2020-05-20 00:00:00 20.9 3 Oeste 12 Noroeste 0 -- -- 63
2020-05-19 23:00:00 22.3 5 Sudoeste 14 Oeste 0 -- -- 56
2020-05-19 22:00:00 23.3 6 Sudoeste 10 Sudoeste 0 -- -- 50
2020-05-19 21:00:00 26.9 5 Sudoeste 9 Sudoeste 0 -- -- 47
2020-05-19 20:00:00 28.5 4 Sur 12 Sudeste 0 -- -- 40
2020-05-19 19:00:00 29.7 4 Sudoeste 11 Este 0 -- -- 35
2020-05-19 18:00:00 29.2 6 Sudeste 21 Sur 0 -- -- 35
2020-05-19 17:00:00 28.9 8 Noroeste 15 Noroeste 0 -- -- 33
2020-05-19 16:00:00 29 3 Nordeste 15 Este 0 -- -- 37
2020-05-19 15:00:00 27.9 4 Sur 16 Sudeste 0 -- -- 35
2020-05-19 14:00:00 27.4 7 Sur 17 Sur 0 -- -- 39
2020-05-19 13:00:00 27.7 4 Este 15 Este 0 -- -- 40
2020-05-19 12:00:00 26.5 8 Este 15 Este 0 -- -- 40
2020-05-19 11:00:00 24.2 3 Nordeste 8 Nordeste 0 -- -- 56
2020-05-19 10:00:00 20.9 2 Norte 5 Noroeste 0 -- -- 58
2020-05-19 09:00:00 18.4 0 Calma 4 Sudoeste 0 -- -- 68
2020-05-19 08:00:00 15.9 2 Sudoeste 4 Oeste 0 -- -- 74
2020-05-19 07:00:00 15.4 3 Oeste 6 Oeste 0 -- -- 72
2020-05-19 06:00:00 15.8 0 Calma 6 Oeste 0 -- -- 71
2020-05-19 05:00:00 16.1 3 Oeste 6 Oeste 0 -- -- 70
2020-05-19 04:00:00 16.4 2 Oeste 4 Oeste 0 -- -- 70
2020-05-19 03:00:00 16.6 0 Calma 5 Noroeste 0 -- -- 67
2020-05-19 02:00:00 17.2 2 Oeste 5 Oeste 0 -- -- 69
2020-05-19 01:00:00 17.9 0 Calma 9 Oeste 0 -- -- 72
2020-05-19 00:00:00 19.3 4 Sudoeste 10 Sudoeste 0 -- -- 71
2020-05-18 23:00:00 20.4 7 Sudoeste 15 Sudoeste 0 -- -- 68
2020-05-18 22:00:00 21.7 8 Sudoeste 14 Sudoeste 0 -- -- 61
2020-05-18 21:00:00 25.2 6 Sudoeste 12 Sudoeste 0 -- -- 51
2020-05-18 20:00:00 27.8 2 Oeste 7 Sudeste 0 -- -- 38
2020-05-18 19:00:00 26.2 0 Calma 15 Noroeste 0 -- -- 44
2020-05-18 18:00:00 27 7 Oeste 18 Oeste 0 -- -- 42
2020-05-18 17:00:00 26.5 6 Sudeste 13 Este 0 -- -- 44
2020-05-18 16:00:00 26.2 4 Norte 12 Sur 0 -- -- 45
2020-05-18 15:00:00 25.2 5 Sur 13 Oeste 0 -- -- 44
2020-05-18 14:00:00 24.5 5 Sur 13 Sudoeste 0 -- -- 51
2020-05-18 13:00:00 24.8 3 Sudeste 11 Nordeste 0 -- -- 48
2020-05-18 12:00:00 22.9 6 Este 13 Este 0 -- -- 54
2020-05-18 11:00:00 21.2 4 Sudeste 13 Este 0 -- -- 56
2020-05-18 10:00:00 17.7 3 Sudeste 8 Este 0 -- -- 85
2020-05-18 09:00:00 15.1 2 Sudeste 5 Este 0 -- -- 100
2020-05-18 08:00:00 13.4 0 Calma 2 Este 0 -- -- 100
2020-05-18 07:00:00 12.7 0 Calma 4 Oeste 0 -- -- 98
2020-05-18 06:00:00 12.9 0 Calma 4 Sudoeste 0 -- -- 97
2020-05-18 05:00:00 13.5 2 Sudoeste 7 Oeste 0 -- -- 95
2020-05-18 04:00:00 14.2 2 Sur 6 Sudeste 0 -- -- 94
2020-05-18 03:00:00 14.5 2 Sudeste 4 Sudeste 0 -- -- 93
2020-05-18 02:00:00 15.2 0 Calma 4 Noroeste 0 -- -- 92
2020-05-18 01:00:00 16.1 2 Oeste 7 Oeste 0 -- -- 88
2020-05-18 00:00:00 16.8 4 Sudoeste 10 Sur 0 -- -- 84
2020-05-17 23:00:00 16.9 4 Sudeste 12 Sudoeste 0 -- -- 83
2020-05-17 22:00:00 17.3 3 Sudoeste 12 Sur 0 -- -- 76
2020-05-17 21:00:00 19.9 5 Sudoeste 15 Sudoeste 0 -- -- 67
2020-05-17 20:00:00 21.6 7 Sudoeste 17 Sudoeste 0 -- -- 62
2020-05-17 19:00:00 21.5 6 Sur 17 Sur 0 -- -- 62
2020-05-17 18:00:00 19.2 5 Sur 13 Sudeste 0 -- -- 77
2020-05-17 17:00:00 20 8 Sudeste 15 Sudeste 0.4 -- -- 72
2020-05-17 16:00:00 19.6 4 Este 18 Sudeste 1.4 -- -- 73
2020-05-17 15:00:00 22.6 6 Sudoeste 17 Sudeste 0 -- -- 55
2020-05-17 14:00:00 21.2 8 Sudeste 18 Sudeste 0 -- -- 62
2020-05-17 13:00:00 19.8 6 Sudeste 13 Este 0 -- -- 65
2020-05-17 12:00:00 16.7 5 Sudeste 12 Este 0 -- -- 84
2020-05-17 11:00:00 14.2 6 Este 13 Este 0 -- -- 100
2020-05-17 10:00:00 13.3 6 Este 13 Sudeste 0 -- -- 100
2020-05-17 09:00:00 12.6 4 Este 10 Este 0 -- -- 100
2020-05-17 08:00:00 11.8 3 Este 7 Sudeste 0 -- -- 99
2020-05-17 07:00:00 12 3 Sudeste 5 Sur 0 -- -- 99
2020-05-17 06:00:00 12 2 Sudeste 4 Sudeste 0 -- -- 98
2020-05-17 05:00:00 12.1 0 Calma 2 Sur 0 -- -- 97
2020-05-17 04:00:00 12.4 0 Calma 3 Sudeste 0 -- -- 96
2020-05-17 03:00:00 13.2 0 Calma 6 Sur 0 -- -- 94
2020-05-17 02:00:00 13.6 4 Sudeste 7 Sudeste 0 -- -- 94
2020-05-17 01:00:00 14.1 4 Nordeste 10 Nordeste 0 -- -- 87
2020-05-17 00:00:00 14.5 3 Sudoeste 12 Sudoeste 0 -- -- 84
2020-05-16 23:00:00 14.9 5 Sudoeste 14 Sudoeste 0 -- -- 83
2020-05-16 22:00:00 14.8 3 Sudoeste 6 Sudoeste 0 -- -- 81
2020-05-16 21:00:00 17 3 Sudoeste 13 Oeste 0 -- -- 70
2020-05-16 20:00:00 18.1 3 Oeste 12 Noroeste 0.2 -- -- 70
2020-05-16 19:00:00 20.1 6 Sudeste 14 Sudeste 0 -- -- 58
2020-05-16 18:00:00 21.1 3 Sudoeste 13 Oeste 0 -- -- 52
2020-05-16 17:00:00 21.1 3 Sudoeste 14 Este 0 -- -- 52
2020-05-16 16:00:00 21.2 4 Este 12 Nordeste 0 -- -- 53
2020-05-16 15:00:00 20.5 4 Este 11 Norte 0 -- -- 54
2020-05-16 14:00:00 17.9 2 Norte 8 Sudoeste 0.4 -- -- 83
2020-05-16 13:00:00 17.4 5 Oeste 9 Sudoeste 0 -- -- 66
2020-05-16 12:00:00 18.3 3 Norte 10 Sudeste 0 -- -- 65
2020-05-16 11:00:00 17.9 3 Nordeste 10 Este 0 -- -- 69
2020-05-16 10:00:00 15.3 3 Nordeste 9 Este 0 -- -- 81
2020-05-16 09:00:00 12.9 0 Calma 4 Sudeste 0 -- -- 85
2020-05-16 08:00:00 11 0 Calma 2 Sudeste 0 -- -- 97
2020-05-16 07:00:00 10.1 0 Calma 0 Calma 0 -- -- 96
2020-05-16 06:00:00 10.3 0 Calma 2 Sudoeste 0 -- -- 95
2020-05-16 05:00:00 10.5 0 Calma 2 Sudoeste 0 -- -- 96
2020-05-16 04:00:00 10.8 0 Calma 3 Sudoeste 0 -- -- 94
2020-05-16 03:00:00 11.5 0 Calma 7 Oeste 0 -- -- 93
2020-05-16 02:00:00 11.6 5 Sudoeste 11 Sur 0 -- -- 94
2020-05-16 01:00:00 11.9 2 Sudeste 6 Sudeste 0 -- -- 94
2020-05-16 00:00:00 12.2 0 Calma 6 Sudeste 0 -- -- 94
2020-05-15 23:00:00 12.5 0 Calma 9 Noroeste 0.2 -- -- 91
2020-05-15 22:00:00 13.1 5 Noroeste 17 Oeste 0.2 -- -- 86
2020-05-15 21:00:00 14.4 4 Noroeste 12 Norte 0.2 -- -- 81
2020-05-15 20:00:00 16.8 3 Norte 14 Noroeste 0 -- -- 68
2020-05-15 19:00:00 19.5 9 Noroeste 15 Noroeste 0 -- -- 58
2020-05-15 18:00:00 17.4 5 Oeste 17 Nordeste 0.2 -- -- 72
2020-05-15 17:00:00 18.5 12 Este 25 Este 0 -- -- 59
2020-05-15 16:00:00 20.1 7 Este 21 Sudeste 0 -- -- 43
2020-05-15 15:00:00 18.6 4 Sudeste 15 Este 0 -- -- 54
2020-05-15 14:00:00 20.3 6 Nordeste 16 Este 0 -- -- 56
2020-05-15 13:00:00 18.2 6 Este 16 Nordeste 0 -- -- 64
2020-05-15 12:00:00 16.1 6 Sudeste 15 Sudeste 0 -- -- 68
2020-05-15 11:00:00 15.8 5 Nordeste 12 Nordeste 0 -- -- 74
2020-05-15 10:00:00 13.1 5 Este 12 Sudeste 0 -- -- 94
2020-05-15 09:00:00 11.5 6 Este 12 Este 0 -- -- 99
2020-05-15 08:00:00 11 5 Este 12 Este 0 -- -- 97
2020-05-15 07:00:00 10.8 2 Sudeste 7 Este 0 -- -- 97
2020-05-15 06:00:00 10.8 3 Este 8 Este 0 -- -- 98
2020-05-15 05:00:00 10.8 3 Sudeste 12 Este 0 -- -- 98
2020-05-15 04:00:00 11.2 5 Este 17 Sudeste 0 -- -- 99
2020-05-15 03:00:00 11.4 8 Sudeste 20 Sudeste 0 -- -- 99
2020-05-15 02:00:00 11.4 5 Sudeste 15 Sudeste 0 -- -- 100
2020-05-15 01:00:00 11.4 5 Sur 22 Sur 0.4 -- -- 99
2020-05-15 00:00:00 11.3 6 Sudeste 18 Sudeste 1.6 -- -- 98
2020-05-14 23:00:00 11.1 4 Sudeste 21 Sudeste 0 -- -- 94
2020-05-14 22:00:00 12.3 6 Sur 25 Sur 0 -- -- 93
2020-05-14 21:00:00 13.2 9 Sur 23 Sudeste 0 -- -- 91
2020-05-14 20:00:00 13.9 13 Sur 30 Sudoeste 0 -- -- 85
2020-05-14 19:00:00 14.9 13 Sur 29 Sudoeste 0 -- -- 83
2020-05-14 18:00:00 13.7 10 Sur 30 Sudeste 0.4 -- -- 92
2020-05-14 17:00:00 12.7 14 Sudoeste 29 Sudoeste 4.6 -- -- 99
2020-05-14 16:00:00 11.8 8 Sudeste 30 Sur 4.2 -- -- 99
2020-05-14 15:00:00 11.6 10 Sudeste 30 Sur 2.2 -- -- 97
2020-05-14 14:00:00 12.8 12 Sur 37 Sur 0.4 -- -- 96
2020-05-14 13:00:00 12.6 9 Sur 30 Sudoeste 0.2 -- -- 100
2020-05-14 12:00:00 10.8 12 Sur 28 Sur 0.4 -- -- 100
2020-05-14 11:00:00 10.4 13 Sur 29 Sudeste 0.4 -- -- 100
2020-05-14 10:00:00 10.2 11 Sudeste 33 Sudeste 0.2 -- -- 100
2020-05-14 09:00:00 9.9 12 Sudeste 23 Sudeste 0.8 -- -- 100
2020-05-14 08:00:00 10.1 9 Sur 20 Sur 0.2 -- -- 100
2020-05-14 07:00:00 10 6 Sur 17 Sudeste 0.4 -- -- 100
2020-05-14 06:00:00 9 3 Sudeste 10 Sur 0 -- -- 98
2020-05-14 05:00:00 8.8 5 Sur 13 Sur 0 -- -- 97
2020-05-14 04:00:00 9.1 4 Sudoeste 14 Sur 0.2 -- -- 96
2020-05-14 03:00:00 9.8 7 Sur 18 Sudeste 2 -- -- 99
2020-05-14 02:00:00 9.9 5 Sur 11 Sur 0 -- -- 98
2020-05-14 01:00:00 10.1 3 Sudoeste 8 Sudoeste 0 -- -- 98
2020-05-14 00:00:00 10.4 4 Sur 17 Sudoeste 0 -- -- 97
2020-05-13 23:00:00 10.7 8 Sudoeste 21 Sudoeste 0 -- -- 96
2020-05-13 22:00:00 10.9 5 Sudoeste 15 Sur 0 -- -- 93
2020-05-13 21:00:00 11.7 6 Sur 15 Sudoeste 0.4 -- -- 90
2020-05-13 20:00:00 13.1 5 Sudoeste 31 Sur 0.4 -- -- 88
2020-05-13 19:00:00 15.6 12 Sudoeste 30 Sudoeste 0 -- -- 76
2020-05-13 18:00:00 16.3 10 Sudoeste 27 Sudoeste 0 -- -- 71
2020-05-13 17:00:00 15.8 8 Sur 27 Sur 0.2 -- -- 77
2020-05-13 16:00:00 16.6 12 Sur 27 Sur 0 -- -- 71
2020-05-13 15:00:00 15.2 10 Sur 26 Sur 1.2 -- -- 85
2020-05-13 14:00:00 14 10 Sudeste 23 Sudeste 0.4 -- -- 89
2020-05-13 13:00:00 14.2 8 Sudeste 22 Sudeste 0 -- -- 89
2020-05-13 12:00:00 14 8 Sudeste 18 Sur 0 -- -- 80
2020-05-13 11:00:00 13.4 8 Sur 14 Este 0 -- -- 84
2020-05-13 10:00:00 12.1 6 Sudeste 12 Sudeste 0 -- -- 96
2020-05-13 09:00:00 11.2 5 Este 9 Este 0 -- -- 100
2020-05-13 08:00:00 9.6 0 Calma 9 Sudoeste 0 -- -- 99
2020-05-13 07:00:00 10.3 4 Sudoeste 12 Oeste 0 -- -- 99
2020-05-13 06:00:00 10.3 0 Calma 11 Sur 0 -- -- 96
2020-05-13 05:00:00 11.3 4 Sudoeste 12 Sur 0 -- -- 97
2020-05-13 04:00:00 11.4 5 Sudoeste 13 Oeste 0 -- -- 97
2020-05-13 03:00:00 11.2 4 Sudoeste 9 Sur 0 -- -- 96
2020-05-13 02:00:00 11.6 2 Sudoeste 10 Sudoeste 0 -- -- 94
2020-05-13 01:00:00 11.8 4 Sudoeste 15 Sudoeste 0 -- -- 93
2020-05-13 00:00:00 12.1 7 Sudoeste 17 Sudoeste 0 -- -- 91
2020-05-12 23:00:00 12.4 4 Sudoeste 15 Sudoeste 0 -- -- 91
2020-05-12 22:00:00 12.9 4 Sudoeste 9 Sudoeste 0 -- -- 93
2020-05-12 21:00:00 14 0 Calma 8 Oeste 0.4 -- -- 88
2020-05-12 20:00:00 13.1 5 Oeste 20 Oeste 0 -- -- 89
2020-05-12 19:00:00 14.6 6 Sudoeste 15 Sudoeste 0 -- -- 84
2020-05-12 18:00:00 15.1 8 Sudoeste 19 Sudoeste 0 -- -- 81
2020-05-12 17:00:00 12.6 7 Sudoeste 21 Sudoeste 3.4 -- -- 95
2020-05-12 16:00:00 13.9 7 Sur 22 Sudoeste 0.6 -- -- 92
2020-05-12 15:00:00 15.7 8 Sudoeste 20 Sudoeste 0 -- -- 75
2020-05-12 14:00:00 15.2 7 Sur 24 Sudeste 0 -- -- 75
2020-05-12 13:00:00 13.1 13 Este 25 Este 0 -- -- 87
2020-05-12 12:00:00 11.9 9 Este 15 Este 0 -- -- 90
2020-05-12 11:00:00 12.4 4 Sur 15 Sudoeste 0 -- -- 90
2020-05-12 10:00:00 12.6 2 Sudeste 9 Sudoeste 0 -- -- 98
2020-05-12 09:00:00 11.9 0 Calma 3 Sudeste 0 -- -- 98
2020-05-12 08:00:00 11.8 2 Nordeste 7 Sudoeste 0 -- -- 98
2020-05-12 07:00:00 11.7 4 Sur 8 Sudoeste 0 -- -- 98
2020-05-12 06:00:00 11.4 4 Sur 9 Sudeste 0 -- -- 98
2020-05-12 05:00:00 10.9 4 Sudeste 8 Sudeste 0 -- -- 98
2020-05-12 04:00:00 11 0 Calma 4 Sur 0 -- -- 97
2020-05-12 03:00:00 11.5 3 Sur 6 Sudoeste 0 -- -- 96
2020-05-12 02:00:00 12.2 3 Sudoeste 9 Sudoeste 0 -- -- 93
2020-05-12 01:00:00 12.9 5 Sur 10 Sur 0 -- -- 90
2020-05-12 00:00:00 13.5 5 Sur 11 Sur 0 -- -- 88
2020-05-11 23:00:00 14 5 Sudoeste 10 Sur 0 -- -- 85
2020-05-11 22:00:00 14.3 3 Sur 12 Sudoeste 0 -- -- 84
2020-05-11 21:00:00 15.8 6 Sudoeste 15 Sudoeste 0 -- -- 74
2020-05-11 20:00:00 17.2 6 Sudoeste 23 Sur 0 -- -- 67
2020-05-11 19:00:00 18.2 7 Sudoeste 29 Sudoeste 0 -- -- 66
2020-05-11 18:00:00 18.4 10 Sudoeste 29 Sur 0 -- -- 63
2020-05-11 17:00:00 18.5 10 Sudoeste 31 Sur 0 -- -- 66
2020-05-11 16:00:00 18.7 14 Sudoeste 33 Sudoeste 0 -- -- 61
2020-05-11 15:00:00 18.1 14 Sudoeste 33 Sudoeste 0 -- -- 63
2020-05-11 14:00:00 18.2 13 Sudoeste 28 Sudoeste 0 -- -- 67
2020-05-11 13:00:00 17.8 14 Oeste 31 Sudoeste 0 -- -- 67
2020-05-11 12:00:00 16.5 8 Sudoeste 32 Sudoeste 0 -- -- 75
2020-05-11 11:00:00 15.5 12 Oeste 26 Oeste 0 -- -- 83
2020-05-11 10:00:00 14.5 8 Sudoeste 34 Oeste 0 -- -- 95
2020-05-11 09:00:00 13.6 19 Sudoeste 41 Sudoeste 1.6 -- -- 99
2020-05-11 08:00:00 13.4 13 Sudoeste 30 Sur 1.4 -- -- 99
2020-05-11 07:00:00 13.1 13 Sudoeste 36 Sur 2.8 -- -- 99
2020-05-11 06:00:00 12.9 10 Sudoeste 27 Sudoeste 0.4 -- -- 98
2020-05-11 05:00:00 12.9 5 Sudoeste 14 Sudoeste 0 -- -- 96
2020-05-11 04:00:00 12.9 5 Sudoeste 21 Sudoeste 0 -- -- 89
2020-05-11 03:00:00 12.8 9 Sudoeste 20 Sudoeste 0 -- -- 88
2020-05-11 02:00:00 13 8 Sudoeste 18 Sudoeste 0 -- -- 84
2020-05-11 01:00:00 13.2 8 Sudoeste 22 Oeste 0 -- -- 83
2020-05-11 00:00:00 14 8 Oeste 17 Oeste 0 -- -- 81
2020-05-10 23:00:00 14.6 7 Oeste 21 Sudoeste 0 -- -- 75
2020-05-10 22:00:00 15.3 7 Oeste 21 Oeste 0 -- -- 69
2020-05-10 21:00:00 16.3 7 Oeste 19 Oeste 0 -- -- 71
2020-05-10 20:00:00 16.8 6 Oeste 27 Noroeste 0 -- -- 72
2020-05-10 19:00:00 17.4 11 Oeste 34 Oeste 0 -- -- 66
2020-05-10 18:00:00 18.6 14 Oeste 33 Oeste 0 -- -- 60
2020-05-10 17:00:00 18.1 12 Oeste 30 Noroeste 0 -- -- 65
2020-05-10 16:00:00 15.9 12 Oeste 30 Oeste 0.6 -- -- 80
2020-05-10 15:00:00 17.3 12 Oeste 30 Oeste 0 -- -- 67
2020-05-10 14:00:00 17.8 15 Oeste 31 Sudoeste 0 -- -- 65
2020-05-10 13:00:00 16.7 11 Oeste 28 Oeste 0 -- -- 71
2020-05-10 12:00:00 15.4 12 Oeste 26 Oeste 0 -- -- 81
2020-05-10 11:00:00 13.9 9 Sudoeste 24 Sudoeste 0 -- -- 89
2020-05-10 10:00:00 12.5 8 Sudoeste 17 Oeste 0 -- -- 96
2020-05-10 09:00:00 11.2 5 Sudoeste 15 Sudoeste 0.6 -- -- 98
2020-05-10 08:00:00 11.1 4 Sudoeste 10 Sudoeste 0 -- -- 99
2020-05-10 07:00:00 10.5 3 Sudoeste 10 Oeste 0 -- -- 99
2020-05-10 06:00:00 10 0 Calma 7 Oeste 0.2 -- -- 97
2020-05-10 05:00:00 10.8 2 Noroeste 12 Noroeste 0 -- -- 96
2020-05-10 04:00:00 11.6 5 Noroeste 12 Noroeste 0 -- -- 96
2020-05-10 03:00:00 12.3 4 Noroeste 12 Noroeste 0 -- -- 96
2020-05-10 02:00:00 12.8 3 Noroeste 7 Oeste 0 -- -- 98
2020-05-10 01:00:00 13 2 Sudoeste 16 Sudoeste 0.2 -- -- 98
2020-05-10 00:00:00 13.5 7 Sudoeste 20 Sudoeste 0.8 -- -- 98
2020-05-09 23:00:00 13.5 6 Sudoeste 15 Oeste 0 -- -- 98
2020-05-09 22:00:00 13.5 6 Sudoeste 15 Sudoeste 0.8 -- -- 98
2020-05-09 21:00:00 13.7 5 Oeste 12 Sudoeste 1.4 -- -- 97
2020-05-09 20:00:00 13.6 4 Sur 20 Sudoeste 1.6 -- -- 96
2020-05-09 19:00:00 13.9 4 Sur 24 Oeste 4.6 -- -- 95
2020-05-09 18:00:00 15.1 9 Sudoeste 30 Oeste 0.4 -- -- 87
2020-05-09 17:00:00 19.1 11 Sudoeste 33 Sudoeste 0 -- -- 56
2020-05-09 16:00:00 20.2 10 Sudoeste 32 Sudoeste 0 -- -- 51
2020-05-09 15:00:00 20 10 Sur 26 Sudoeste 0 -- -- 53
2020-05-09 14:00:00 19.2 12 Sudoeste 27 Sur 0 -- -- 53
2020-05-09 13:00:00 18.5 10 Sudoeste 25 Sudeste 0 -- -- 58
2020-05-09 12:00:00 17.2 8 Sudoeste 18 Sudoeste 0 -- -- 64
2020-05-09 11:00:00 15.1 7 Sur 13 Sudeste 0 -- -- 82
2020-05-09 10:00:00 14.5 5 Sur 14 Sudeste 0 -- -- 89
2020-05-09 09:00:00 13.5 5 Sur 13 Sudeste 0 -- -- 95
2020-05-09 08:00:00 12.9 3 Sur 10 Sudeste 0 -- -- 97
2020-05-09 07:00:00 12.5 2 Sudeste 9 Sur 0 -- -- 96
2020-05-09 06:00:00 12.7 4 Sur 11 Sur 0 -- -- 96
2020-05-09 05:00:00 12.9 6 Sudoeste 13 Sudoeste 0 -- -- 96
2020-05-09 04:00:00 12.8 0 Calma 11 Sudoeste 0 -- -- 93
2020-05-09 03:00:00 13.2 2 Sudoeste 11 Sudoeste 0 -- -- 92
2020-05-09 02:00:00 13.4 5 Sudoeste 21 Sudoeste 0 -- -- 93
2020-05-09 01:00:00 13.5 11 Sudoeste 24 Oeste 0 -- -- 95
2020-05-09 00:00:00 13.7 6 Sudoeste 13 Sudoeste 0 -- -- 92
2020-05-08 23:00:00 14.8 5 Sudoeste 14 Sudoeste 0 -- -- 87
2020-05-08 22:00:00 16.4 7 Sudoeste 16 Sudoeste 0 -- -- 79
2020-05-08 21:00:00 19.1 7 Sudoeste 19 Sudoeste 0 -- -- 59
2020-05-08 20:00:00 22.1 8 Sudoeste 23 Sudoeste 0 -- -- 50
2020-05-08 19:00:00 22.9 8 Sudoeste 28 Sur 0 -- -- 56
2020-05-08 18:00:00 23.5 10 Sudoeste 28 Sudoeste 0 -- -- 52
2020-05-08 17:00:00 23.6 11 Sudoeste 26 Sur 0 -- -- 55
2020-05-08 16:00:00 23.5 11 Sudoeste 31 Sudoeste 0 -- -- 57
2020-05-08 15:00:00 24 8 Sur 26 Sur 0 -- -- 52
2020-05-08 14:00:00 23 9 Sudoeste 29 Sur 0 -- -- 53
2020-05-08 13:00:00 22.8 10 Sudoeste 23 Sudoeste 0 -- -- 53
2020-05-08 12:00:00 21.3 6 Sudoeste 16 Oeste 0 -- -- 55
2020-05-08 11:00:00 19.8 5 Oeste 15 Oeste 0 -- -- 62
2020-05-08 10:00:00 17.8 6 Oeste 14 Oeste 0 -- -- 68
2020-05-08 09:00:00 15.5 3 Oeste 5 Noroeste 0 -- -- 79
2020-05-08 08:00:00 13.2 2 Sudoeste 4 Sudoeste 0 -- -- 89
2020-05-08 07:00:00 13.2 3 Oeste 5 Oeste 0 -- -- 86
2020-05-08 06:00:00 13.5 0 Calma 5 Sudoeste 0 -- -- 83
2020-05-08 05:00:00 14.4 2 Sudoeste 5 Oeste 0 -- -- 85
2020-05-08 04:00:00 15 0 Calma 14 Sudoeste 0 -- -- 80
2020-05-08 03:00:00 16.6 7 Sudoeste 16 Sudoeste 0 -- -- 71
2020-05-08 02:00:00 17.4 5 Sudoeste 13 Oeste 0 -- -- 64
2020-05-08 01:00:00 18.2 7 Sudoeste 19 Sudoeste 0 -- -- 68
2020-05-08 00:00:00 18.9 8 Sudoeste 21 Sudoeste 0 -- -- 67
2020-05-07 23:00:00 20.2 10 Sudoeste 23 Oeste 0 -- -- 63
2020-05-07 22:00:00 21.4 2 Noroeste 15 Sur 0 -- -- 63
2020-05-07 21:00:00 23.4 6 Sudoeste 20 Sudoeste 0 -- -- 58
2020-05-07 20:00:00 26.6 5 Sudoeste 18 Sur 0 -- -- 48
2020-05-07 19:00:00 27.1 7 Sudoeste 19 Sur 0 -- -- 44
2020-05-07 18:00:00 27.2 9 Sur 22 Sur 0 -- -- 41
2020-05-07 17:00:00 27.4 10 Sur 19 Sur 0 -- -- 44
2020-05-07 16:00:00 27.1 6 Sudeste 23 Sudeste 0 -- -- 45
2020-05-07 15:00:00 25.8 13 Sudeste 33 Sudeste 0 -- -- 45
2020-05-07 14:00:00 25.6 11 Sudeste 26 Este 0 -- -- 46
2020-05-07 13:00:00 24.9 15 Sudeste 27 Sudeste 0 -- -- 47
2020-05-07 12:00:00 23.8 6 Este 13 Este 0 -- -- 52
2020-05-07 11:00:00 21.1 8 Nordeste 19 Este 0 -- -- 58
2020-05-07 10:00:00 18.6 2 Sudeste 8 Sudeste 0 -- -- 66
2020-05-07 09:00:00 16.2 4 Este 9 Este 0 -- -- 67
2020-05-07 08:00:00 14.9 0 Calma 4 Sudeste 0 -- -- 71
2020-05-07 07:00:00 14.9 0 Calma 2 Este 0 -- -- 68
2020-05-07 06:00:00 15.8 0 Calma 5 Este 0 -- -- 65
2020-05-07 05:00:00 16.6 0 Calma 2 Sudeste 0 -- -- 60
2020-05-07 04:00:00 17 0 Calma 4 Sudeste 0 -- -- 59
2020-05-07 03:00:00 17.2 2 Este 6 Nordeste 0 -- -- 56
2020-05-07 02:00:00 17.7 5 Nordeste 12 Nordeste 0 -- -- 54
2020-05-07 01:00:00 17.5 0 Calma 4 Este 0 -- -- 57
2020-05-07 00:00:00 18.2 0 Calma 7 Noroeste 0 -- -- 57
2020-05-06 23:00:00 19.3 2 Noroeste 8 Norte 0 -- -- 53
2020-05-06 22:00:00 20.6 0 Calma 12 Noroeste 0 -- -- 53
2020-05-06 21:00:00 23.7 3 Sudeste 14 Norte 0 -- -- 45
2020-05-06 20:00:00 27 3 Norte 13 Norte 0 -- -- 39
2020-05-06 19:00:00 27.8 4 Norte 17 Este 0 -- -- 37
2020-05-06 18:00:00 27.5 5 Nordeste 22 Este 0 -- -- 39
2020-05-06 17:00:00 27.7 5 Nordeste 15 Nordeste 0 -- -- 37
2020-05-06 16:00:00 26.7 6 Nordeste 21 Este 0 -- -- 37
2020-05-06 15:00:00 25.9 7 Norte 17 Norte 0 -- -- 39
2020-05-06 14:00:00 24.7 6 Nordeste 18 Nordeste 0 -- -- 43
2020-05-06 13:00:00 24.1 5 Nordeste 19 Nordeste 0 -- -- 46
2020-05-06 12:00:00 23.1 4 Norte 15 Nordeste 0 -- -- 47
2020-05-06 11:00:00 21.1 5 Nordeste 15 Nordeste 0 -- -- 60
2020-05-06 10:00:00 17.9 3 Nordeste 9 Norte 0 -- -- 73
2020-05-06 09:00:00 14.9 3 Norte 6 Noroeste 0 -- -- 80
2020-05-06 08:00:00 13 0 Calma 9 Oeste 0 -- -- 84
2020-05-06 07:00:00 12.9 4 Noroeste 8 Noroeste 0 -- -- 83
2020-05-06 06:00:00 13.6 3 Noroeste 12 Oeste 0 -- -- 80
2020-05-06 05:00:00 13.6 6 Noroeste 13 Oeste 0 -- -- 76
2020-05-06 04:00:00 14.6 6 Noroeste 16 Noroeste 0 -- -- 65
2020-05-06 03:00:00 14.3 5 Noroeste 10 Oeste 0 -- -- 68
2020-05-06 02:00:00 14.5 3 Noroeste 9 Norte 0 -- -- 66
2020-05-06 01:00:00 15.9 6 Noroeste 12 Noroeste 0 -- -- 60
2020-05-06 00:00:00 16.8 4 Noroeste 14 Noroeste 0 -- -- 56
2020-05-05 23:00:00 17.6 4 Noroeste 13 Noroeste 0 -- -- 56
2020-05-05 22:00:00 19.8 5 Noroeste 16 Oeste 0 -- -- 50
2020-05-05 21:00:00 22.4 4 Sudoeste 9 Oeste 0 -- -- 35
2020-05-05 20:00:00 26.1 4 Sudoeste 13 Noroeste 0 -- -- 25
2020-05-05 19:00:00 26.2 4 Oeste 16 Noroeste 0 -- -- 27
2020-05-05 18:00:00 26 6 Sudoeste 17 Oeste 0 -- -- 30
2020-05-05 17:00:00 25.7 4 Noroeste 16 Noroeste 0 -- -- 37
2020-05-05 16:00:00 24.1 6 Noroeste 17 Noroeste 0 -- -- 39
2020-05-05 15:00:00 23.4 6 Oeste 19 Oeste 0 -- -- 41
2020-05-05 14:00:00 22.8 6 Sudoeste 14 Noroeste 0 -- -- 47
2020-05-05 13:00:00 21.3 6 Noroeste 15 Noroeste 0 -- -- 51
2020-05-05 12:00:00 20.5 3 Este 9 Norte 0 -- -- 60
2020-05-05 11:00:00 18.7 4 Nordeste 12 Este 0 -- -- 72
2020-05-05 10:00:00 16.1 6 Este 12 Este 0 -- -- 90
2020-05-05 09:00:00 14.7 2 Este 8 Noroeste 0 -- -- 98
2020-05-05 08:00:00 14 3 Norte 9 Noroeste 0 -- -- 99
2020-05-05 07:00:00 13.8 2 Noroeste 8 Este 0 -- -- 99
2020-05-05 06:00:00 14.3 4 Nordeste 9 Este 0 -- -- 99
2020-05-05 05:00:00 14.2 2 Este 9 Este 0 -- -- 99
2020-05-05 04:00:00 13.8 2 Sudeste 9 Sudeste 0 -- -- 96
2020-05-05 03:00:00 14.5 0 Calma 8 Oeste 0 -- -- 95
2020-05-05 02:00:00 14.9 3 Oeste 9 Sudoeste 0 -- -- 96
2020-05-05 01:00:00 15.1 2 Oeste 13 Sudoeste 0 -- -- 94
2020-05-05 00:00:00 15.8 2 Norte 17 Sudoeste 0 -- -- 92
2020-05-04 23:00:00 16.6 5 Sudoeste 16 Sudoeste 0 -- -- 90
2020-05-04 22:00:00 17.5 7 Sudoeste 19 Sudoeste 0 -- -- 85
2020-05-04 21:00:00 19.2 6 Sudoeste 19 Sudoeste 0 -- -- 78
2020-05-04 20:00:00 21.7 9 Sudoeste 26 Oeste 0 -- -- 68
2020-05-04 19:00:00 24.2 9 Sudoeste 29 Sudoeste 0 -- -- 55
2020-05-04 18:00:00 25 13 Sudoeste 36 Oeste 0 -- -- 51
2020-05-04 17:00:00 25.5 14 Sudoeste 30 Sur 0 -- -- 49
2020-05-04 16:00:00 26.3 12 Sur 28 Sudoeste 0 -- -- 37
2020-05-04 15:00:00 25.9 14 Sudoeste 36 Sur 0 -- -- 34
2020-05-04 14:00:00 24.7 18 Sudoeste 40 Sudoeste 0 -- -- 51
2020-05-04 13:00:00 24.5 14 Sudoeste 33 Sur 0 -- -- 52
2020-05-04 12:00:00 25 13 Sudoeste 27 Sudoeste 0 -- -- 45
2020-05-04 11:00:00 25.1 6 Sur 19 Sudeste 0 -- -- 42
2020-05-04 10:00:00 23 5 Sudeste 12 Sudeste 0 -- -- 45
2020-05-04 09:00:00 20.1 5 Este 10 Este 0 -- -- 51
2020-05-04 08:00:00 18.4 3 Sudeste 8 Este 0 -- -- 55
2020-05-04 07:00:00 19.1 3 Sudeste 19 Este 0 -- -- 52
2020-05-04 06:00:00 19.6 10 Este 18 Este 0 -- -- 49
2020-05-04 05:00:00 19.1 6 Sudeste 10 Sudeste 0 -- -- 52
2020-05-04 04:00:00 19.4 6 Este 10 Este 0 -- -- 50
2020-05-04 03:00:00 20 4 Este 12 Este 0 -- -- 54
2020-05-04 02:00:00 20.8 6 Este 10 Este 0 -- -- 58
2020-05-04 01:00:00 22.1 4 Este 13 Este 0 -- -- 54
2020-05-04 00:00:00 22.8 6 Sudeste 8 Sudeste 0 -- -- 50
2020-05-03 23:00:00 23.4 5 Sudeste 7 Sudeste 0 -- -- 50
2020-05-03 22:00:00 23.8 4 Sudeste 6 Sudeste 0 -- -- 51
2020-05-03 21:00:00 26.1 5 Sudeste 6 Sur 0 -- -- 48
2020-05-03 20:00:00 29.8 2 Sudeste 13 Sudeste 0 -- -- 42
2020-05-03 19:00:00 30.8 5 Sur 11 Sudeste 0 -- -- 35
2020-05-03 18:00:00 30.6 6 Sur 17 Sur 0 -- -- 36
2020-05-03 17:00:00 30.6 5 Sur 17 Sur 0 -- -- 35
2020-05-03 16:00:00 30 7 Sur 21 Sur 0 -- -- 34
2020-05-03 15:00:00 29.2 8 Sur 21 Sudeste 0 -- -- 37
2020-05-03 14:00:00 28.5 9 Este 22 Nordeste 0 -- -- 40
2020-05-03 13:00:00 27.4 11 Este 22 Este 0 -- -- 44
2020-05-03 12:00:00 26 12 Este 23 Este 0 -- -- 51
2020-05-03 11:00:00 24.5 8 Este 19 Este 0 -- -- 57
2020-05-03 10:00:00 22.2 6 Este 16 Sudeste 0 -- -- 64
2020-05-03 09:00:00 19.3 5 Sudeste 12 Sudeste 0 -- -- 75
2020-05-03 08:00:00 16.7 4 Este 9 Sudeste 0 -- -- 79
2020-05-03 07:00:00 16.7 2 Sur 8 Sudeste 0 -- -- 78
2020-05-03 06:00:00 17.6 4 Sudeste 6 Este 0 -- -- 74
2020-05-03 05:00:00 17.7 4 Sudeste 6 Este 0 -- -- 74
2020-05-03 04:00:00 17.6 0 Calma 2 Sur 0 -- -- 75
2020-05-03 03:00:00 17.9 0 Calma 5 Sudoeste 0 -- -- 73
2020-05-03 02:00:00 18.3 0 Calma 4 Oeste 0 -- -- 70
2020-05-03 01:00:00 19.1 0 Calma 2 Oeste 0 -- -- 67
2020-05-03 00:00:00 19.4 0 Calma 5 Sudoeste 0 -- -- 66